Stena Europe — VSTA3 — position and weather

sailwx.info

Track history (hours):
 
Tides and Currents Weather Stations Pressure Air Temp Water Temp Dewpoint Dewpoint Depression Visibility Wind Speed Wind Dir Waves Ship Positions

Stena Europe

Operator: Stena Line

Last reported at 2019-Mar-20 05:15 UTC. Time now 2019-May-20 16:28 UTC.
Position N 36°33' E 013°47'.
Warning: this ship's position is months out of date.

Length 149 m; draft 6.1 m.

Type: Passenger vessel. MMSI: 235004539.

Date/timePositionNaut miles runAvg speedWind from/ knotsBaromVisibWave heightAir tempDewpointWater temp
2019-Mar-20 05:15N 36°33' E 013°47'  
2019-Mar-16 23:32N 36°05' W 007°25'214.7
2019-Mar-16 23:24N 36°05' W 007°27'613.6
2019-Mar-16 22:59N 36°06' W 007°34'714.0
2019-Mar-16 22:27N 36°07' W 007°43'714.0
2019-Mar-16 21:59N 36°08' W 007°51'1013.9
2019-Mar-16 21:15N 36°10' W 008°03'414.4
2019-Mar-16 20:58N 36°11' W 008°08'814.3
2019-Mar-16 20:25N 36°13' W 008°18'614.2
2019-Mar-16 20:00N 36°14' W 008°25'714.3
2019-Mar-16 19:30N 36°15' W 008°34'714.4
2019-Mar-16 19:00N 36°16' W 008°43'714.3
2019-Mar-16 18:31N 36°18' W 008°51'714.4
2019-Mar-16 18:01N 36°19' W 008°60'714.3
2019-Mar-16 17:30N 36°21' W 009°09'713.4
2019-Mar-16 17:00N 36°22' W 009°17'714.0
2019-Mar-16 16:30N 36°24' W 009°25'714.2
2019-Mar-16 16:00N 36°28' W 009°33'714.0
2019-Mar-16 15:30N 36°33' W 009°39'714.2
2019-Mar-16 15:00N 36°39' W 009°43'714.1
2019-Mar-16 14:30N 36°46' W 009°46'714.4
2019-Mar-16 14:00N 36°53' W 009°48'714.3
2019-Mar-16 13:30N 36°59' W 009°51'714.2
2019-Mar-16 13:00N 37°06' W 009°53'714.1
2019-Mar-16 12:31N 37°13' W 009°55'714.3
2019-Mar-16 12:01N 37°20' W 009°57'714.4
2019-Mar-16 11:30N 37°27' W 009°60'714.3
2019-Mar-16 11:00N 37°34' W 010°02'714.6
2019-Mar-16 10:30N 37°41' W 010°04'714.5
2019-Mar-16 10:01N 37°48' W 010°07'1114.7
2019-Mar-16 09:16N 37°59' W 010°11'414.7
2019-Mar-16 09:00N 38°02' W 010°12'714.5
2019-Mar-16 08:30N 38°09' W 010°14'714.5
2019-Mar-16 08:01N 38°16' W 010°16'714.6
2019-Mar-16 07:31N 38°23' W 010°18'714.7
2019-Mar-16 07:00N 38°31' W 010°20'714.7
2019-Mar-16 06:30N 38°38' W 010°22'714.4
2019-Mar-16 06:00N 38°45' W 010°23'714.4
2019-Mar-16 05:30N 38°52' W 010°23'714.2
2019-Mar-16 05:00N 38°59' W 010°24'714.1
2019-Mar-16 04:30N 39°06' W 010°24'714.0
2019-Mar-16 04:01N 39°13' W 010°24'713.9
2019-Mar-16 03:31N 39°20' W 010°24'714.0
2019-Mar-16 03:01N 39°27' W 010°24'713.9
2019-Mar-16 02:30N 39°34' W 010°24'713.9
2019-Mar-16 02:00N 39°41' W 010°23'713.8
2019-Mar-16 01:30N 39°48' W 010°23'713.6
2019-Mar-16 01:01N 39°55' W 010°23'713.7
2019-Mar-16 00:30N 40°02' W 010°23'913.9
2019-Mar-15 23:53N 40°10' W 010°23'513.6
2019-Mar-15 23:30N 40°15' W 010°23'714.0
2019-Mar-15 22:58N 40°23' W 010°23'613.8
2019-Mar-15 22:30N 40°29' W 010°23'713.6
2019-Mar-15 22:00N 40°36' W 010°23'1513.7
2019-Mar-15 20:56N 40°51' W 010°23'813.4
2019-Mar-15 20:19N 40°59' W 010°23'613.5
2019-Mar-15 19:50N 41°06' W 010°23'513.6
2019-Mar-15 19:30N 41°10' W 010°23'713.5
2019-Mar-15 19:00N 41°17' W 010°23'713.5
2019-Mar-15 18:30N 41°24' W 010°23'713.6
2019-Mar-15 18:01N 41°30' W 010°22'  
2019-Mar-12 11:27N 52°04' W 005°47'614.0
2019-Mar-12 11:00N 52°09' W 005°52'816.3
2019-Mar-12 10:30N 52°12' W 006°04'816.7
2019-Mar-12 10:00N 52°15' W 006°17'2 3.6
2019-Mar-12 09:30N 52°15' W 006°20'0 0.0
2019-Mar-12 09:00N 52°15' W 006°20'0 0.0
2019-Mar-12 08:30N 52°15' W 006°20'0 0.0
2019-Mar-12 08:00N 52°15' W 006°20'0 0.0
2019-Mar-12 07:30N 52°15' W 006°20'0 0.0
2019-Mar-12 07:00N 52°15' W 006°20'0 0.0
2019-Mar-12 06:30N 52°15' W 006°20'0 0.0
2019-Mar-12 06:00N 52°15' W 006°20'0 0.0
2019-Mar-12 05:30N 52°15' W 006°20'0 0.0
2019-Mar-12 05:00N 52°15' W 006°20'0 0.0
2019-Mar-12 04:30N 52°15' W 006°20'0 0.0
2019-Mar-12 04:00N 52°15' W 006°20'0 0.0
2019-Mar-12 03:30N 52°15' W 006°20'0 0.0
2019-Mar-12 03:00N 52°15' W 006°20'0 0.0
2019-Mar-12 02:30N 52°15' W 006°20'0 0.0
2019-Mar-12 02:00N 52°15' W 006°20'0 0.0
2019-Mar-12 01:30N 52°15' W 006°20'0 0.0
2019-Mar-12 01:00N 52°15' W 006°20'0 0.0
2019-Mar-12 00:30N 52°15' W 006°20'0 0.0
2019-Mar-12 00:00N 52°15' W 006°20'0 0.0
2019-Mar-11 23:30N 52°15' W 006°20'0 0.0
2019-Mar-11 23:00N 52°15' W 006°20'0 0.0
2019-Mar-11 22:30N 52°15' W 006°20'0 0.0
2019-Mar-11 22:00N 52°15' W 006°20'0 0.0
2019-Mar-11 21:30N 52°15' W 006°20'0 0.0
2019-Mar-11 21:00N 52°15' W 006°20'0 0.0
2019-Mar-11 20:30N 52°15' W 006°20'0 0.0
2019-Mar-11 20:00N 52°15' W 006°20'0 0.0
2019-Mar-11 19:30N 52°15' W 006°20'0 0.0
2019-Mar-11 19:00N 52°15' W 006°20'0 0.0
2019-Mar-11 18:30N 52°15' W 006°20'0 0.0
2019-Mar-11 18:00N 52°15' W 006°20'0 0.0
2019-Mar-11 17:30N 52°15' W 006°20'0 0.0
2019-Mar-11 17:00N 52°15' W 006°20'0 0.6
2019-Mar-11 16:30N 52°16' W 006°20'815.6
2019-Mar-11 16:00N 52°13' W 006°08'917.0
2019-Mar-11 15:30N 52°11' W 005°54'916.7
2019-Mar-11 14:58N 52°09' W 005°40'10 1.6
2019-Mar-11 08:59N 52°06' W 005°55'816.6
2019-Mar-11 08:30N 52°11' W 006°05'816.9
2019-Mar-11 08:00N 52°15' W 006°17'2 3.9
2019-Mar-11 07:30N 52°15' W 006°20'0 0.0
2019-Mar-11 07:00N 52°15' W 006°20'0 0.0
2019-Mar-11 06:30N 52°15' W 006°20'0 0.0
2019-Mar-11 06:00N 52°15' W 006°20'0 0.0
2019-Mar-11 05:30N 52°15' W 006°20'0 0.0
2019-Mar-11 05:00N 52°15' W 006°20'0 0.0
2019-Mar-11 04:30N 52°15' W 006°20'1 1.4
2019-Mar-11 04:01N 52°16' W 006°19'815.4
2019-Mar-11 03:30N 52°14' W 006°07'815.6
2019-Mar-11 03:00N 52°15' W 005°55'4 0.6
2019-Mar-10 20:16N 52°12' W 005°57'517.2
2019-Mar-10 20:00N 52°13' W 006°05'816.9
2019-Mar-10 19:30N 52°15' W 006°18'1 2.9
2019-Mar-10 19:01N 52°15' W 006°20'0 0.0
2019-Mar-10 18:30N 52°15' W 006°20'0 0.0
2019-Mar-10 18:00N 52°15' W 006°20'0 0.8
2019-Mar-10 17:30N 52°16' W 006°20'713.8
2019-Mar-10 17:00N 52°15' W 006°09'815.3
2019-Mar-10 16:30N 52°14' W 005°56'714.5
2019-Mar-10 16:00N 52°14' W 005°45'5 0.8
2019-Mar-10 09:16N 52°11' W 005°52'516.9
2019-Mar-10 09:00N 52°12' W 005°59'817.3
2019-Mar-10 08:30N 52°14' W 006°13'5 9.4
2019-Mar-10 08:00N 52°15' W 006°20'0 0.0
2019-Mar-10 07:30N 52°15' W 006°20'0 0.0
2019-Mar-10 07:00N 52°15' W 006°20'0 0.0
2019-Mar-10 06:30N 52°15' W 006°20'0 0.0
2019-Mar-10 06:00N 52°15' W 006°20'0 0.0
2019-Mar-10 05:30N 52°15' W 006°20'  
Track history (hours):
 
Tides and Currents Weather Stations Pressure Air Temp Water Temp Dewpoint Dewpoint Depression Visibility Wind Speed Wind Dir Waves Ship Positions

Stena Europe

Operator: Stena Line

Last reported at 2019-Mar-20 05:15 UTC. Time now 2019-May-20 16:28 UTC.
Position N 36°33' E 013°47'.
Warning: this ship's position is months out of date.

Length 149 m; draft 6.1 m.

Type: Passenger vessel. MMSI: 235004539.

Date/timePositionNaut miles runAvg speedWind from/ knotsBaromVisibWave heightAir tempDewpointWater temp
2019-Mar-20 05:15N 36°33' E 013°47'  
2019-Mar-16 23:32N 36°05' W 007°25'214.7
2019-Mar-16 23:24N 36°05' W 007°27'613.6
2019-Mar-16 22:59N 36°06' W 007°34'714.0
2019-Mar-16 22:27N 36°07' W 007°43'714.0
2019-Mar-16 21:59N 36°08' W 007°51'1013.9
2019-Mar-16 21:15N 36°10' W 008°03'414.4
2019-Mar-16 20:58N 36°11' W 008°08'814.3
2019-Mar-16 20:25N 36°13' W 008°18'614.2
2019-Mar-16 20:00N 36°14' W 008°25'714.3
2019-Mar-16 19:30N 36°15' W 008°34'714.4
2019-Mar-16 19:00N 36°16' W 008°43'714.3
2019-Mar-16 18:31N 36°18' W 008°51'714.4
2019-Mar-16 18:01N 36°19' W 008°60'714.3
2019-Mar-16 17:30N 36°21' W 009°09'713.4
2019-Mar-16 17:00N 36°22' W 009°17'714.0
2019-Mar-16 16:30N 36°24' W 009°25'714.2
2019-Mar-16 16:00N 36°28' W 009°33'714.0
2019-Mar-16 15:30N 36°33' W 009°39'714.2
2019-Mar-16 15:00N 36°39' W 009°43'714.1
2019-Mar-16 14:30N 36°46' W 009°46'714.4
2019-Mar-16 14:00N 36°53' W 009°48'714.3
2019-Mar-16 13:30N 36°59' W 009°51'714.2
2019-Mar-16 13:00N 37°06' W 009°53'714.1
2019-Mar-16 12:31N 37°13' W 009°55'714.3
2019-Mar-16 12:01N 37°20' W 009°57'714.4
2019-Mar-16 11:30N 37°27' W 009°60'714.3
2019-Mar-16 11:00N 37°34' W 010°02'714.6
2019-Mar-16 10:30N 37°41' W 010°04'714.5
2019-Mar-16 10:01N 37°48' W 010°07'1114.7
2019-Mar-16 09:16N 37°59' W 010°11'414.7
2019-Mar-16 09:00N 38°02' W 010°12'714.5
2019-Mar-16 08:30N 38°09' W 010°14'714.5
2019-Mar-16 08:01N 38°16' W 010°16'714.6
2019-Mar-16 07:31N 38°23' W 010°18'714.7
2019-Mar-16 07:00N 38°31' W 010°20'714.7
2019-Mar-16 06:30N 38°38' W 010°22'714.4
2019-Mar-16 06:00N 38°45' W 010°23'714.4
2019-Mar-16 05:30N 38°52' W 010°23'714.2
2019-Mar-16 05:00N 38°59' W 010°24'714.1
2019-Mar-16 04:30N 39°06' W 010°24'714.0
2019-Mar-16 04:01N 39°13' W 010°24'713.9
2019-Mar-16 03:31N 39°20' W 010°24'714.0
2019-Mar-16 03:01N 39°27' W 010°24'713.9
2019-Mar-16 02:30N 39°34' W 010°24'713.9
2019-Mar-16 02:00N 39°41' W 010°23'713.8
2019-Mar-16 01:30N 39°48' W 010°23'713.6
2019-Mar-16 01:01N 39°55' W 010°23'713.7
2019-Mar-16 00:30N 40°02' W 010°23'913.9
2019-Mar-15 23:53N 40°10' W 010°23'513.6
2019-Mar-15 23:30N 40°15' W 010°23'714.0
2019-Mar-15 22:58N 40°23' W 010°23'613.8
2019-Mar-15 22:30N 40°29' W 010°23'713.6
2019-Mar-15 22:00N 40°36' W 010°23'1513.7
2019-Mar-15 20:56N 40°51' W 010°23'813.4
2019-Mar-15 20:19N 40°59' W 010°23'613.5
2019-Mar-15 19:50N 41°06' W 010°23'513.6
2019-Mar-15 19:30N 41°10' W 010°23'713.5
2019-Mar-15 19:00N 41°17' W 010°23'713.5
2019-Mar-15 18:30N 41°24' W 010°23'713.6
2019-Mar-15 18:01N 41°30' W 010°22'  
2019-Mar-12 11:27N 52°04' W 005°47'614.0
2019-Mar-12 11:00N 52°09' W 005°52'816.3
2019-Mar-12 10:30N 52°12' W 006°04'816.7
2019-Mar-12 10:00N 52°15' W 006°17'2 3.6
2019-Mar-12 09:30N 52°15' W 006°20'0 0.0
2019-Mar-12 09:00N 52°15' W 006°20'0 0.0
2019-Mar-12 08:30N 52°15' W 006°20'0 0.0
2019-Mar-12 08:00N 52°15' W 006°20'0 0.0
2019-Mar-12 07:30N 52°15' W 006°20'0 0.0
2019-Mar-12 07:00N 52°15' W 006°20'0 0.0
2019-Mar-12 06:30N 52°15' W 006°20'0 0.0
2019-Mar-12 06:00N 52°15' W 006°20'0 0.0
2019-Mar-12 05:30N 52°15' W 006°20'0 0.0
2019-Mar-12 05:00N 52°15' W 006°20'0 0.0
2019-Mar-12 04:30N 52°15' W 006°20'0 0.0
2019-Mar-12 04:00N 52°15' W 006°20'0 0.0
2019-Mar-12 03:30N 52°15' W 006°20'0 0.0
2019-Mar-12 03:00N 52°15' W 006°20'0 0.0
2019-Mar-12 02:30N 52°15' W 006°20'0 0.0
2019-Mar-12 02:00N 52°15' W 006°20'0 0.0
2019-Mar-12 01:30N 52°15' W 006°20'0 0.0
2019-Mar-12 01:00N 52°15' W 006°20'0 0.0
2019-Mar-12 00:30N 52°15' W 006°20'0 0.0
2019-Mar-12 00:00N 52°15' W 006°20'0 0.0
2019-Mar-11 23:30N 52°15' W 006°20'0 0.0
2019-Mar-11 23:00N 52°15' W 006°20'0 0.0
2019-Mar-11 22:30N 52°15' W 006°20'0 0.0
2019-Mar-11 22:00N 52°15' W 006°20'0 0.0
2019-Mar-11 21:30N 52°15' W 006°20'0 0.0
2019-Mar-11 21:00N 52°15' W 006°20'0 0.0
2019-Mar-11 20:30N 52°15' W 006°20'0 0.0
2019-Mar-11 20:00N 52°15' W 006°20'0 0.0
2019-Mar-11 19:30N 52°15' W 006°20'0 0.0
2019-Mar-11 19:00N 52°15' W 006°20'0 0.0
2019-Mar-11 18:30N 52°15' W 006°20'0 0.0
2019-Mar-11 18:00N 52°15' W 006°20'0 0.0
2019-Mar-11 17:30N 52°15' W 006°20'0 0.0
2019-Mar-11 17:00N 52°15' W 006°20'0 0.6
2019-Mar-11 16:30N 52°16' W 006°20'815.6
2019-Mar-11 16:00N 52°13' W 006°08'917.0
2019-Mar-11 15:30N 52°11' W 005°54'916.7
2019-Mar-11 14:58N 52°09' W 005°40'10 1.6
2019-Mar-11 08:59N 52°06' W 005°55'816.6
2019-Mar-11 08:30N 52°11' W 006°05'816.9
2019-Mar-11 08:00N 52°15' W 006°17'2 3.9
2019-Mar-11 07:30N 52°15' W 006°20'0 0.0
2019-Mar-11 07:00N 52°15' W 006°20'0 0.0
2019-Mar-11 06:30N 52°15' W 006°20'0 0.0
2019-Mar-11 06:00N 52°15' W 006°20'0 0.0
2019-Mar-11 05:30N 52°15' W 006°20'0 0.0
2019-Mar-11 05:00N 52°15' W 006°20'0 0.0
2019-Mar-11 04:30N 52°15' W 006°20'1 1.4
2019-Mar-11 04:01N 52°16' W 006°19'815.4
2019-Mar-11 03:30N 52°14' W 006°07'815.6
2019-Mar-11 03:00N 52°15' W 005°55'4 0.6
2019-Mar-10 20:16N 52°12' W 005°57'517.2
2019-Mar-10 20:00N 52°13' W 006°05'816.9
2019-Mar-10 19:30N 52°15' W 006°18'1 2.9
2019-Mar-10 19:01N 52°15' W 006°20'0 0.0
2019-Mar-10 18:30N 52°15' W 006°20'0 0.0
2019-Mar-10 18:00N 52°15' W 006°20'0 0.8
2019-Mar-10 17:30N 52°16' W 006°20'713.8
2019-Mar-10 17:00N 52°15' W 006°09'815.3
2019-Mar-10 16:30N 52°14' W 005°56'714.5
2019-Mar-10 16:00N 52°14' W 005°45'5 0.8
2019-Mar-10 09:16N 52°11' W 005°52'516.9
2019-Mar-10 09:00N 52°12' W 005°59'817.3
2019-Mar-10 08:30N 52°14' W 006°13'5 9.4
2019-Mar-10 08:00N 52°15' W 006°20'0 0.0
2019-Mar-10 07:30N 52°15' W 006°20'0 0.0
2019-Mar-10 07:00N 52°15' W 006°20'0 0.0
2019-Mar-10 06:30N 52°15' W 006°20'0 0.0
2019-Mar-10 06:00N 52°15' W 006°20'0 0.0
2019-Mar-10 05:30N 52°15' W 006°20'  

Dump ship's entire track history